sensor_id;sensor_type;location;lat;lon;timestamp;temperature;humidity
32296;DHT22;18781;51.550;5.418;2023-02-01T00:01:57;8.60;71.10
32296;DHT22;18781;51.550;5.418;2023-02-01T00:04:22;8.50;71.00
32296;DHT22;18781;51.550;5.418;2023-02-01T00:06:48;8.50;71.00
32296;DHT22;18781;51.550;5.418;2023-02-01T00:09:13;8.50;70.80
32296;DHT22;18781;51.550;5.418;2023-02-01T00:11:39;8.50;70.70
32296;DHT22;18781;51.550;5.418;2023-02-01T00:14:05;8.50;70.70
32296;DHT22;18781;51.550;5.418;2023-02-01T00:16:31;8.50;70.60
32296;DHT22;18781;51.550;5.418;2023-02-01T00:19:11;8.50;70.50
32296;DHT22;18781;51.550;5.418;2023-02-01T00:21:38;8.50;70.30
32296;DHT22;18781;51.550;5.418;2023-02-01T00:24:04;8.40;70.40
32296;DHT22;18781;51.550;5.418;2023-02-01T00:26:42;8.50;70.40
32296;DHT22;18781;51.550;5.418;2023-02-01T00:29:16;8.40;70.20
32296;DHT22;18781;51.550;5.418;2023-02-01T00:31:42;8.40;70.00
32296;DHT22;18781;51.550;5.418;2023-02-01T00:34:14;8.40;70.10
32296;DHT22;18781;51.550;5.418;2023-02-01T00:36:42;8.40;69.90
32296;DHT22;18781;51.550;5.418;2023-02-01T00:39:08;8.40;69.90
32296;DHT22;18781;51.550;5.418;2023-02-01T00:41:34;8.40;69.80
32296;DHT22;18781;51.550;5.418;2023-02-01T00:44:00;8.40;69.70
32296;DHT22;18781;51.550;5.418;2023-02-01T00:46:26;8.40;69.50
32296;DHT22;18781;51.550;5.418;2023-02-01T00:48:53;8.40;69.40
32296;DHT22;18781;51.550;5.418;2023-02-01T00:51:21;8.30;69.30
32296;DHT22;18781;51.550;5.418;2023-02-01T00:53:47;8.30;69.30
32296;DHT22;18781;51.550;5.418;2023-02-01T00:56:13;8.30;69.20
32296;DHT22;18781;51.550;5.418;2023-02-01T00:58:39;8.30;69.20
32296;DHT22;18781;51.550;5.418;2023-02-01T01:01:05;8.30;69.30
32296;DHT22;18781;51.550;5.418;2023-02-01T01:03:33;8.30;69.30
32296;DHT22;18781;51.550;5.418;2023-02-01T01:06:00;8.30;69.20
32296;DHT22;18781;51.550;5.418;2023-02-01T01:08:26;8.30;69.20
32296;DHT22;18781;51.550;5.418;2023-02-01T01:10:52;8.30;69.20
32296;DHT22;18781;51.550;5.418;2023-02-01T01:13:18;8.30;69.20
32296;DHT22;18781;51.550;5.418;2023-02-01T01:15:43;8.30;69.20
32296;DHT22;18781;51.550;5.418;2023-02-01T01:18:09;8.30;69.10
32296;DHT22;18781;51.550;5.418;2023-02-01T01:20:37;8.30;69.10
32296;DHT22;18781;51.550;5.418;2023-02-01T01:23:04;8.30;69.00
32296;DHT22;18781;51.550;5.418;2023-02-01T01:25:31;8.20;68.90
32296;DHT22;18781;51.550;5.418;2023-02-01T01:27:56;8.20;69.00
32296;DHT22;18781;51.550;5.418;2023-02-01T01:30:22;8.20;68.90
32296;DHT22;18781;51.550;5.418;2023-02-01T01:32:48;8.20;68.90
32296;DHT22;18781;51.550;5.418;2023-02-01T01:35:13;8.20;68.80
32296;DHT22;18781;51.550;5.418;2023-02-01T01:37:39;8.20;68.70
32296;DHT22;18781;51.550;5.418;2023-02-01T01:40:05;8.10;68.70
32296;DHT22;18781;51.550;5.418;2023-02-01T01:42:40;8.10;68.70
32296;DHT22;18781;51.550;5.418;2023-02-01T01:47:52;8.10;68.60
32296;DHT22;18781;51.550;5.418;2023-02-01T01:50:22;8.10;68.50
32296;DHT22;18781;51.550;5.418;2023-02-01T01:52:51;8.00;68.40
32296;DHT22;18781;51.550;5.418;2023-02-01T01:55:20;8.00;68.50
32296;DHT22;18781;51.550;5.418;2023-02-01T01:57:56;8.00;68.50
32296;DHT22;18781;51.550;5.418;2023-02-01T02:00:23;8.00;68.50
32296;DHT22;18781;51.550;5.418;2023-02-01T02:02:53;8.00;69.20
32296;DHT22;18781;51.550;5.418;2023-02-01T02:05:20;7.90;68.60
32296;DHT22;18781;51.550;5.418;2023-02-01T02:07:48;7.90;68.70
32296;DHT22;18781;51.550;5.418;2023-02-01T02:10:14;7.90;68.70
32296;DHT22;18781;51.550;5.418;2023-02-01T02:12:42;7.90;68.80
32296;DHT22;18781;51.550;5.418;2023-02-01T02:15:10;7.80;68.80
32296;DHT22;18781;51.550;5.418;2023-02-01T02:17:55;7.80;68.90
32296;DHT22;18781;51.550;5.418;2023-02-01T02:20:39;7.80;69.00
32296;DHT22;18781;51.550;5.418;2023-02-01T02:23:25;7.80;69.00
32296;DHT22;18781;51.550;5.418;2023-02-01T02:26:17;7.80;69.30
32296;DHT22;18781;51.550;5.418;2023-02-01T02:29:24;7.80;69.40
32296;DHT22;18781;51.550;5.418;2023-02-01T02:37:53;7.80;69.70
32296;DHT22;18781;51.550;5.418;2023-02-01T02:40:31;7.80;69.80
32296;DHT22;18781;51.550;5.418;2023-02-01T02:43:30;7.80;70.00
32296;DHT22;18781;51.550;5.418;2023-02-01T02:46:27;7.80;70.10
32296;DHT22;18781;51.550;5.418;2023-02-01T02:49:19;7.80;70.20
32296;DHT22;18781;51.550;5.418;2023-02-01T02:52:02;7.80;70.20
32296;DHT22;18781;51.550;5.418;2023-02-01T02:54:48;7.80;70.30
32296;DHT22;18781;51.550;5.418;2023-02-01T03:00:07;7.80;70.10
32296;DHT22;18781;51.550;5.418;2023-02-01T03:02:52;7.80;70.10
32296;DHT22;18781;51.550;5.418;2023-02-01T03:05:41;7.80;70.00
32296;DHT22;18781;51.550;5.418;2023-02-01T03:08:13;7.80;69.90
32296;DHT22;18781;51.550;5.418;2023-02-01T03:10:50;7.80;69.90
32296;DHT22;18781;51.550;5.418;2023-02-01T03:16:17;7.80;69.90
32296;DHT22;18781;51.550;5.418;2023-02-01T03:21:19;7.80;69.90
32296;DHT22;18781;51.550;5.418;2023-02-01T03:23:47;7.80;69.90
32296;DHT22;18781;51.550;5.418;2023-02-01T03:26:15;7.80;70.00
32296;DHT22;18781;51.550;5.418;2023-02-01T03:28:45;7.80;70.10
32296;DHT22;18781;51.550;5.418;2023-02-01T03:31:15;7.80;70.10
32296;DHT22;18781;51.550;5.418;2023-02-01T03:33:41;7.80;70.70
32296;DHT22;18781;51.550;5.418;2023-02-01T03:36:18;7.80;70.20
32296;DHT22;18781;51.550;5.418;2023-02-01T03:39:01;7.80;70.40
32296;DHT22;18781;51.550;5.418;2023-02-01T03:41:35;7.80;70.40
32296;DHT22;18781;51.550;5.418;2023-02-01T03:44:13;7.80;70.30
32296;DHT22;18781;51.550;5.418;2023-02-01T03:46:52;7.80;70.20
32296;DHT22;18781;51.550;5.418;2023-02-01T03:49:46;7.80;70.20
32296;DHT22;18781;51.550;5.418;2023-02-01T03:52:17;7.80;70.20
32296;DHT22;18781;51.550;5.418;2023-02-01T03:54:45;7.80;70.20
32296;DHT22;18781;51.550;5.418;2023-02-01T03:57:16;7.80;70.20
32296;DHT22;18781;51.550;5.418;2023-02-01T03:59:45;7.80;70.20
32296;DHT22;18781;51.550;5.418;2023-02-01T04:02:11;7.90;70.20
32296;DHT22;18781;51.550;5.418;2023-02-01T04:04:37;7.90;70.20
32296;DHT22;18781;51.550;5.418;2023-02-01T04:07:03;7.90;70.20
32296;DHT22;18781;51.550;5.418;2023-02-01T04:09:28;7.90;70.20
32296;DHT22;18781;51.550;5.418;2023-02-01T04:11:54;7.90;70.00
32296;DHT22;18781;51.550;5.418;2023-02-01T04:14:20;7.90;70.60
32296;DHT22;18781;51.550;5.418;2023-02-01T04:16:45;8.00;70.20
32296;DHT22;18781;51.550;5.418;2023-02-01T04:19:11;7.90;70.10
32296;DHT22;18781;51.550;5.418;2023-02-01T04:21:37;8.00;70.20
32296;DHT22;18781;51.550;5.418;2023-02-01T04:24:03;7.90;70.10
32296;DHT22;18781;51.550;5.418;2023-02-01T04:26:28;7.90;70.10
32296;DHT22;18781;51.550;5.418;2023-02-01T04:28:54;7.90;70.10
32296;DHT22;18781;51.550;5.418;2023-02-01T04:31:20;7.90;70.10
32296;DHT22;18781;51.550;5.418;2023-02-01T04:33:51;8.00;70.10
32296;DHT22;18781;51.550;5.418;2023-02-01T04:36:18;8.00;70.10
32296;DHT22;18781;51.550;5.418;2023-02-01T04:38:46;8.00;70.10
32296;DHT22;18781;51.550;5.418;2023-02-01T04:41:12;8.00;70.10
32296;DHT22;18781;51.550;5.418;2023-02-01T04:43:38;8.00;70.10
32296;DHT22;18781;51.550;5.418;2023-02-01T04:46:03;8.00;70.10
32296;DHT22;18781;51.550;5.418;2023-02-01T04:48:30;8.00;70.10
32296;DHT22;18781;51.550;5.418;2023-02-01T04:50:55;7.90;70.00
32296;DHT22;18781;51.550;5.418;2023-02-01T04:53:21;7.90;70.00
32296;DHT22;18781;51.550;5.418;2023-02-01T04:55:49;7.90;70.10
32296;DHT22;18781;51.550;5.418;2023-02-01T04:58:15;7.90;70.10
32296;DHT22;18781;51.550;5.418;2023-02-01T05:00:41;7.90;70.10
32296;DHT22;18781;51.550;5.418;2023-02-01T05:03:06;7.90;70.10
32296;DHT22;18781;51.550;5.418;2023-02-01T05:05:32;7.90;70.10
32296;DHT22;18781;51.550;5.418;2023-02-01T05:07:58;7.90;70.10
32296;DHT22;18781;51.550;5.418;2023-02-01T05:10:23;7.90;70.20
32296;DHT22;18781;51.550;5.418;2023-02-01T05:12:49;8.00;70.30
32296;DHT22;18781;51.550;5.418;2023-02-01T05:15:33;7.90;70.20
32296;DHT22;18781;51.550;5.418;2023-02-01T05:17:59;7.90;70.30
32296;DHT22;18781;51.550;5.418;2023-02-01T05:20:24;7.90;70.40
32296;DHT22;18781;51.550;5.418;2023-02-01T05:22:50;8.00;70.50
32296;DHT22;18781;51.550;5.418;2023-02-01T05:25:16;8.00;70.50
32296;DHT22;18781;51.550;5.418;2023-02-01T05:27:42;8.00;70.50
32296;DHT22;18781;51.550;5.418;2023-02-01T05:30:08;8.00;70.60
32296;DHT22;18781;51.550;5.418;2023-02-01T05:32:34;8.00;70.60
32296;DHT22;18781;51.550;5.418;2023-02-01T05:35:00;8.00;70.70
32296;DHT22;18781;51.550;5.418;2023-02-01T05:37:26;8.00;70.70
32296;DHT22;18781;51.550;5.418;2023-02-01T05:39:51;8.00;70.70
32296;DHT22;18781;51.550;5.418;2023-02-01T05:42:17;8.10;70.60
32296;DHT22;18781;51.550;5.418;2023-02-01T05:44:43;8.10;70.60
32296;DHT22;18781;51.550;5.418;2023-02-01T05:47:08;8.10;70.60
32296;DHT22;18781;51.550;5.418;2023-02-01T05:49:34;8.10;70.60
32296;DHT22;18781;51.550;5.418;2023-02-01T05:52:00;8.10;70.60
32296;DHT22;18781;51.550;5.418;2023-02-01T05:54:25;8.10;70.60
32296;DHT22;18781;51.550;5.418;2023-02-01T05:56:51;8.10;70.60
32296;DHT22;18781;51.550;5.418;2023-02-01T05:59:17;8.10;70.80
32296;DHT22;18781;51.550;5.418;2023-02-01T06:01:42;8.10;70.70
32296;DHT22;18781;51.550;5.418;2023-02-01T06:04:08;8.20;70.80
32296;DHT22;18781;51.550;5.418;2023-02-01T06:06:34;8.20;70.80
32296;DHT22;18781;51.550;5.418;2023-02-01T06:09:00;8.20;70.80
32296;DHT22;18781;51.550;5.418;2023-02-01T06:11:26;8.20;70.80
32296;DHT22;18781;51.550;5.418;2023-02-01T06:13:51;8.20;70.80
32296;DHT22;18781;51.550;5.418;2023-02-01T06:16:17;8.30;71.30
32296;DHT22;18781;51.550;5.418;2023-02-01T06:18:44;8.30;70.80
32296;DHT22;18781;51.550;5.418;2023-02-01T06:21:09;8.30;70.80
32296;DHT22;18781;51.550;5.418;2023-02-01T06:23:35;8.30;70.80
32296;DHT22;18781;51.550;5.418;2023-02-01T06:26:03;8.30;70.80
32296;DHT22;18781;51.550;5.418;2023-02-01T06:28:30;8.30;70.80
32296;DHT22;18781;51.550;5.418;2023-02-01T06:30:56;8.40;70.80
32296;DHT22;18781;51.550;5.418;2023-02-01T06:33:26;8.40;70.80
32296;DHT22;18781;51.550;5.418;2023-02-01T06:35:59;8.40;70.70
32296;DHT22;18781;51.550;5.418;2023-02-01T06:38:25;8.40;70.70
32296;DHT22;18781;51.550;5.418;2023-02-01T06:40:56;8.50;70.70
32296;DHT22;18781;51.550;5.418;2023-02-01T06:43:23;8.50;70.80
32296;DHT22;18781;51.550;5.418;2023-02-01T06:45:51;8.40;70.70
32296;DHT22;18781;51.550;5.418;2023-02-01T06:48:17;8.50;70.70
32296;DHT22;18781;51.550;5.418;2023-02-01T06:50:43;8.50;70.60
32296;DHT22;18781;51.550;5.418;2023-02-01T06:53:08;8.60;70.60
32296;DHT22;18781;51.550;5.418;2023-02-01T06:55:34;8.50;70.60
32296;DHT22;18781;51.550;5.418;2023-02-01T06:58:00;8.60;70.50
32296;DHT22;18781;51.550;5.418;2023-02-01T07:00:28;8.60;70.50
32296;DHT22;18781;51.550;5.418;2023-02-01T07:02:53;8.60;70.30
32296;DHT22;18781;51.550;5.418;2023-02-01T07:05:19;8.60;70.30
32296;DHT22;18781;51.550;5.418;2023-02-01T07:07:45;8.60;70.20
32296;DHT22;18781;51.550;5.418;2023-02-01T07:10:10;8.60;70.20
32296;DHT22;18781;51.550;5.418;2023-02-01T07:12:36;8.70;70.10
32296;DHT22;18781;51.550;5.418;2023-02-01T07:15:03;8.70;70.20
32296;DHT22;18781;51.550;5.418;2023-02-01T07:17:29;8.70;70.10
32296;DHT22;18781;51.550;5.418;2023-02-01T07:19:58;8.70;70.00
32296;DHT22;18781;51.550;5.418;2023-02-01T07:22:27;8.70;70.00
32296;DHT22;18781;51.550;5.418;2023-02-01T07:24:52;8.60;69.90
32296;DHT22;18781;51.550;5.418;2023-02-01T07:27:18;8.70;69.90
32296;DHT22;18781;51.550;5.418;2023-02-01T07:29:45;8.60;69.80
32296;DHT22;18781;51.550;5.418;2023-02-01T07:32:10;8.70;69.90
32296;DHT22;18781;51.550;5.418;2023-02-01T07:34:36;8.70;69.80
32296;DHT22;18781;51.550;5.418;2023-02-01T07:37:02;8.70;69.80
32296;DHT22;18781;51.550;5.418;2023-02-01T07:39:28;8.70;69.70
32296;DHT22;18781;51.550;5.418;2023-02-01T07:41:54;8.70;69.70
32296;DHT22;18781;51.550;5.418;2023-02-01T07:44:19;8.70;69.70
32296;DHT22;18781;51.550;5.418;2023-02-01T07:46:48;8.70;69.60
32296;DHT22;18781;51.550;5.418;2023-02-01T07:49:14;8.70;69.60
32296;DHT22;18781;51.550;5.418;2023-02-01T07:51:39;8.70;69.50
32296;DHT22;18781;51.550;5.418;2023-02-01T07:54:05;8.70;69.50
32296;DHT22;18781;51.550;5.418;2023-02-01T07:56:31;8.70;69.50
32296;DHT22;18781;51.550;5.418;2023-02-01T07:58:56;8.70;69.50
32296;DHT22;18781;51.550;5.418;2023-02-01T08:01:24;8.70;69.50
32296;DHT22;18781;51.550;5.418;2023-02-01T08:03:56;8.70;69.50
32296;DHT22;18781;51.550;5.418;2023-02-01T08:06:23;8.70;69.50
32296;DHT22;18781;51.550;5.418;2023-02-01T08:08:49;8.70;69.50
32296;DHT22;18781;51.550;5.418;2023-02-01T08:11:15;8.70;69.50
32296;DHT22;18781;51.550;5.418;2023-02-01T08:13:42;8.70;69.50
32296;DHT22;18781;51.550;5.418;2023-02-01T08:16:09;8.70;69.60
32296;DHT22;18781;51.550;5.418;2023-02-01T08:18:37;8.70;69.60
32296;DHT22;18781;51.550;5.418;2023-02-01T08:21:06;8.80;69.80
32296;DHT22;18781;51.550;5.418;2023-02-01T08:23:34;8.80;69.80
32296;DHT22;18781;51.550;5.418;2023-02-01T08:26:19;8.80;69.80
32296;DHT22;18781;51.550;5.418;2023-02-01T08:28:48;8.90;69.70
32296;DHT22;18781;51.550;5.418;2023-02-01T08:31:16;8.90;69.60
32296;DHT22;18781;51.550;5.418;2023-02-01T08:33:43;8.90;69.60
32296;DHT22;18781;51.550;5.418;2023-02-01T08:36:10;8.90;69.60
32296;DHT22;18781;51.550;5.418;2023-02-01T08:38:37;9.00;69.60
32296;DHT22;18781;51.550;5.418;2023-02-01T08:41:17;9.00;69.60
32296;DHT22;18781;51.550;5.418;2023-02-01T08:43:43;9.00;69.60
32296;DHT22;18781;51.550;5.418;2023-02-01T08:46:10;9.00;69.50
32296;DHT22;18781;51.550;5.418;2023-02-01T08:48:37;9.00;69.40
32296;DHT22;18781;51.550;5.418;2023-02-01T08:51:04;9.10;69.50
32296;DHT22;18781;51.550;5.418;2023-02-01T08:53:30;9.10;69.40
32296;DHT22;18781;51.550;5.418;2023-02-01T08:55:56;9.10;69.30
32296;DHT22;18781;51.550;5.418;2023-02-01T08:58:22;9.20;69.30
32296;DHT22;18781;51.550;5.418;2023-02-01T09:00:48;9.20;69.10
32296;DHT22;18781;51.550;5.418;2023-02-01T09:03:14;9.30;69.30
32296;DHT22;18781;51.550;5.418;2023-02-01T09:05:40;9.30;69.30
32296;DHT22;18781;51.550;5.418;2023-02-01T09:08:06;9.30;69.20
32296;DHT22;18781;51.550;5.418;2023-02-01T09:10:33;9.30;69.30
32296;DHT22;18781;51.550;5.418;2023-02-01T09:12:59;9.30;69.20
32296;DHT22;18781;51.550;5.418;2023-02-01T09:15:24;9.30;69.00
32296;DHT22;18781;51.550;5.418;2023-02-01T09:17:50;9.40;69.00
32296;DHT22;18781;51.550;5.418;2023-02-01T09:20:15;9.40;68.90
32296;DHT22;18781;51.550;5.418;2023-02-01T09:22:41;9.40;68.90
32296;DHT22;18781;51.550;5.418;2023-02-01T09:25:07;9.40;68.90
32296;DHT22;18781;51.550;5.418;2023-02-01T09:27:34;9.50;68.90
32296;DHT22;18781;51.550;5.418;2023-02-01T09:29:59;9.50;69.00
32296;DHT22;18781;51.550;5.418;2023-02-01T09:32:25;9.50;69.10
32296;DHT22;18781;51.550;5.418;2023-02-01T09:34:52;9.60;69.10
32296;DHT22;18781;51.550;5.418;2023-02-01T09:37:18;9.60;69.10
32296;DHT22;18781;51.550;5.418;2023-02-01T09:39:43;9.60;69.00
32296;DHT22;18781;51.550;5.418;2023-02-01T09:48:20;9.70;69.00
32296;DHT22;18781;51.550;5.418;2023-02-01T09:50:54;9.80;68.90
32296;DHT22;18781;51.550;5.418;2023-02-01T09:53:29;9.80;68.60
32296;DHT22;18781;51.550;5.418;2023-02-01T09:59:21;9.90;68.40
32296;DHT22;18781;51.550;5.418;2023-02-01T10:01:49;9.90;68.60
32296;DHT22;18781;51.550;5.418;2023-02-01T10:04:15;9.90;68.10
32296;DHT22;18781;51.550;5.418;2023-02-01T10:16:12;10.20;68.50
32296;DHT22;18781;51.550;5.418;2023-02-01T10:21:28;10.30;68.10
32296;DHT22;18781;51.550;5.418;2023-02-01T10:26:57;10.40;67.90
32296;DHT22;18781;51.550;5.418;2023-02-01T10:29:32;10.50;67.70
32296;DHT22;18781;51.550;5.418;2023-02-01T10:32:01;10.50;67.20
32296;DHT22;18781;51.550;5.418;2023-02-01T10:34:30;10.60;67.20
32296;DHT22;18781;51.550;5.418;2023-02-01T10:37:01;10.60;66.40
32296;DHT22;18781;51.550;5.418;2023-02-01T10:39:27;10.60;65.80
32296;DHT22;18781;51.550;5.418;2023-02-01T10:41:53;10.70;65.70
32296;DHT22;18781;51.550;5.418;2023-02-01T10:44:23;10.70;65.80
32296;DHT22;18781;51.550;5.418;2023-02-01T10:46:50;10.70;65.70
32296;DHT22;18781;51.550;5.418;2023-02-01T10:49:29;10.70;65.40
32296;DHT22;18781;51.550;5.418;2023-02-01T10:52:05;10.70;65.20
32296;DHT22;18781;51.550;5.418;2023-02-01T10:54:38;10.70;65.20
32296;DHT22;18781;51.550;5.418;2023-02-01T10:57:08;10.70;65.50
32296;DHT22;18781;51.550;5.418;2023-02-01T10:59:34;10.80;64.90
32296;DHT22;18781;51.550;5.418;2023-02-01T11:02:15;10.80;65.50
32296;DHT22;18781;51.550;5.418;2023-02-01T11:04:43;10.80;64.80
32296;DHT22;18781;51.550;5.418;2023-02-01T11:07:18;10.80;64.90
32296;DHT22;18781;51.550;5.418;2023-02-01T11:09:50;10.80;65.30
32296;DHT22;18781;51.550;5.418;2023-02-01T11:12:31;10.80;64.50
32296;DHT22;18781;51.550;5.418;2023-02-01T11:15:01;10.90;64.70
32296;DHT22;18781;51.550;5.418;2023-02-01T11:17:35;10.90;64.40
32296;DHT22;18781;51.550;5.418;2023-02-01T11:20:17;10.80;64.30
32296;DHT22;18781;51.550;5.418;2023-02-01T11:22:54;10.90;64.00
32296;DHT22;18781;51.550;5.418;2023-02-01T11:25:20;10.90;64.10
32296;DHT22;18781;51.550;5.418;2023-02-01T11:27:48;10.90;63.80
32296;DHT22;18781;51.550;5.418;2023-02-01T11:30:19;10.80;64.20
32296;DHT22;18781;51.550;5.418;2023-02-01T11:32:48;10.90;63.90
32296;DHT22;18781;51.550;5.418;2023-02-01T11:35:18;10.90;64.10
32296;DHT22;18781;51.550;5.418;2023-02-01T11:37:50;10.90;64.30
32296;DHT22;18781;51.550;5.418;2023-02-01T11:45:34;10.90;64.10
32296;DHT22;18781;51.550;5.418;2023-02-01T11:48:00;10.90;64.00
32296;DHT22;18781;51.550;5.418;2023-02-01T11:53:25;10.90;63.80
32296;DHT22;18781;51.550;5.418;2023-02-01T12:04:56;10.90;63.60
32296;DHT22;18781;51.550;5.418;2023-02-01T12:07:48;11.00;63.60
32296;DHT22;18781;51.550;5.418;2023-02-01T12:10:36;10.90;63.80
32296;DHT22;18781;51.550;5.418;2023-02-01T12:13:25;11.00;63.60
32296;DHT22;18781;51.550;5.418;2023-02-01T12:25:20;11.00;63.40
32296;DHT22;18781;51.550;5.418;2023-02-01T12:33:30;11.00;63.00
32296;DHT22;18781;51.550;5.418;2023-02-01T12:38:46;11.00;62.90
32296;DHT22;18781;51.550;5.418;2023-02-01T12:41:54;11.00;63.10
32296;DHT22;18781;51.550;5.418;2023-02-01T12:45:19;11.00;63.10
32296;DHT22;18781;51.550;5.418;2023-02-01T12:47:40;11.00;63.00
32296;DHT22;18781;51.550;5.418;2023-02-01T12:50:18;11.00;63.20
32296;DHT22;18781;51.550;5.418;2023-02-01T12:52:53;11.10;63.00
32296;DHT22;18781;51.550;5.418;2023-02-01T12:55:43;11.10;64.00
32296;DHT22;18781;51.550;5.418;2023-02-01T12:58:24;11.00;63.10
32296;DHT22;18781;51.550;5.418;2023-02-01T13:01:00;11.10;62.90
32296;DHT22;18781;51.550;5.418;2023-02-01T13:03:38;11.10;63.00
32296;DHT22;18781;51.550;5.418;2023-02-01T13:08:43;11.10;62.70
32296;DHT22;18781;51.550;5.418;2023-02-01T13:11:23;11.10;62.50
32296;DHT22;18781;51.550;5.418;2023-02-01T13:17:14;11.20;62.90
32296;DHT22;18781;51.550;5.418;2023-02-01T13:19:54;11.20;62.50
32296;DHT22;18781;51.550;5.418;2023-02-01T13:22:43;11.20;62.60
32296;DHT22;18781;51.550;5.418;2023-02-01T13:25:29;11.20;62.50
32296;DHT22;18781;51.550;5.418;2023-02-01T13:27:56;11.20;62.20
32296;DHT22;18781;51.550;5.418;2023-02-01T13:30:36;11.30;62.40
32296;DHT22;18781;51.550;5.418;2023-02-01T13:35:45;11.30;62.40
32296;DHT22;18781;51.550;5.418;2023-02-01T13:43:58;11.40;62.60
32296;DHT22;18781;51.550;5.418;2023-02-01T13:46:26;11.40;62.50
32296;DHT22;18781;51.550;5.418;2023-02-01T13:49:00;11.40;62.40
32296;DHT22;18781;51.550;5.418;2023-02-01T13:51:36;11.40;61.80
32296;DHT22;18781;51.550;5.418;2023-02-01T13:54:04;11.50;61.40
32296;DHT22;18781;51.550;5.418;2023-02-01T13:56:42;11.50;61.30
32296;DHT22;18781;51.550;5.418;2023-02-01T13:59:48;11.50;61.60
32296;DHT22;18781;51.550;5.418;2023-02-01T14:10:55;11.50;61.60
32296;DHT22;18781;51.550;5.418;2023-02-01T14:13:32;11.50;61.70
32296;DHT22;18781;51.550;5.418;2023-02-01T14:21:34;11.50;61.60
32296;DHT22;18781;51.550;5.418;2023-02-01T14:37:35;11.50;62.20
32296;DHT22;18781;51.550;5.418;2023-02-01T14:42:42;11.50;62.40
32296;DHT22;18781;51.550;5.418;2023-02-01T14:47:48;11.50;62.00
32296;DHT22;18781;51.550;5.418;2023-02-01T14:55:53;11.50;62.10
32296;DHT22;18781;51.550;5.418;2023-02-01T15:06:43;11.50;61.90
32296;DHT22;18781;51.550;5.418;2023-02-01T15:14:20;11.40;62.10
32296;DHT22;18781;51.550;5.418;2023-02-01T15:16:46;11.50;62.00
32296;DHT22;18781;51.550;5.418;2023-02-01T15:19:21;11.40;62.00
32296;DHT22;18781;51.550;5.418;2023-02-01T15:21:50;11.50;62.10
32296;DHT22;18781;51.550;5.418;2023-02-01T15:24:21;11.40;61.90
32296;DHT22;18781;51.550;5.418;2023-02-01T15:26:47;11.40;61.90
32296;DHT22;18781;51.550;5.418;2023-02-01T15:29:14;11.40;62.00
32296;DHT22;18781;51.550;5.418;2023-02-01T15:31:48;11.40;62.10
32296;DHT22;18781;51.550;5.418;2023-02-01T15:34:14;11.40;62.10
32296;DHT22;18781;51.550;5.418;2023-02-01T15:36:40;11.40;62.00
32296;DHT22;18781;51.550;5.418;2023-02-01T15:39:22;11.40;62.20
32296;DHT22;18781;51.550;5.418;2023-02-01T15:41:53;11.40;62.10
32296;DHT22;18781;51.550;5.418;2023-02-01T15:44:21;11.40;62.10
32296;DHT22;18781;51.550;5.418;2023-02-01T15:46:50;11.40;62.20
32296;DHT22;18781;51.550;5.418;2023-02-01T15:49:39;11.40;62.20
32296;DHT22;18781;51.550;5.418;2023-02-01T15:52:32;11.40;62.40
32296;DHT22;18781;51.550;5.418;2023-02-01T15:55:02;11.40;62.10
32296;DHT22;18781;51.550;5.418;2023-02-01T15:57:35;11.40;62.10
32296;DHT22;18781;51.550;5.418;2023-02-01T16:02:55;11.40;62.20
32296;DHT22;18781;51.550;5.418;2023-02-01T16:05:35;11.40;62.10
32296;DHT22;18781;51.550;5.418;2023-02-01T16:08:06;11.40;62.30
32296;DHT22;18781;51.550;5.418;2023-02-01T16:10:46;11.40;62.40
32296;DHT22;18781;51.550;5.418;2023-02-01T16:13:13;11.40;62.40
32296;DHT22;18781;51.550;5.418;2023-02-01T16:15:39;11.40;62.50
32296;DHT22;18781;51.550;5.418;2023-02-01T16:18:08;11.30;62.40
32296;DHT22;18781;51.550;5.418;2023-02-01T16:20:35;11.30;62.30
32296;DHT22;18781;51.550;5.418;2023-02-01T16:23:02;11.30;62.40
32296;DHT22;18781;51.550;5.418;2023-02-01T16:25:28;11.30;62.50
32296;DHT22;18781;51.550;5.418;2023-02-01T16:27:54;11.30;62.60
32296;DHT22;18781;51.550;5.418;2023-02-01T16:30:19;11.30;62.70
32296;DHT22;18781;51.550;5.418;2023-02-01T16:32:58;11.30;62.70
32296;DHT22;18781;51.550;5.418;2023-02-01T16:35:27;11.30;62.70
32296;DHT22;18781;51.550;5.418;2023-02-01T16:37:53;11.30;62.80
32296;DHT22;18781;51.550;5.418;2023-02-01T16:40:20;11.30;62.80
32296;DHT22;18781;51.550;5.418;2023-02-01T16:42:49;11.30;63.00
32296;DHT22;18781;51.550;5.418;2023-02-01T16:45:15;11.30;63.00
32296;DHT22;18781;51.550;5.418;2023-02-01T16:47:47;11.30;63.00
32296;DHT22;18781;51.550;5.418;2023-02-01T16:50:24;11.30;63.00
32296;DHT22;18781;51.550;5.418;2023-02-01T16:52:51;11.20;63.10
32296;DHT22;18781;51.550;5.418;2023-02-01T16:55:19;11.20;63.10
32296;DHT22;18781;51.550;5.418;2023-02-01T16:57:46;11.20;63.20
32296;DHT22;18781;51.550;5.418;2023-02-01T17:00:13;11.20;63.30
32296;DHT22;18781;51.550;5.418;2023-02-01T17:02:39;11.20;63.40
32296;DHT22;18781;51.550;5.418;2023-02-01T17:05:07;11.20;63.40
32296;DHT22;18781;51.550;5.418;2023-02-01T17:07:33;11.20;63.50
32296;DHT22;18781;51.550;5.418;2023-02-01T17:09:59;11.20;64.00
32296;DHT22;18781;51.550;5.418;2023-02-01T17:12:28;11.20;63.50
32296;DHT22;18781;51.550;5.418;2023-02-01T17:14:55;11.10;63.50
32296;DHT22;18781;51.550;5.418;2023-02-01T17:17:21;11.20;63.40
32296;DHT22;18781;51.550;5.418;2023-02-01T17:19:50;11.20;63.50
32296;DHT22;18781;51.550;5.418;2023-02-01T17:22:17;11.20;63.60
32296;DHT22;18781;51.550;5.418;2023-02-01T17:24:43;11.10;63.60
32296;DHT22;18781;51.550;5.418;2023-02-01T17:27:09;11.10;63.60
32296;DHT22;18781;51.550;5.418;2023-02-01T17:29:40;11.20;63.70
32296;DHT22;18781;51.550;5.418;2023-02-01T17:32:21;11.10;63.50
32296;DHT22;18781;51.550;5.418;2023-02-01T17:34:47;11.10;63.60
32296;DHT22;18781;51.550;5.418;2023-02-01T17:39:47;11.10;63.70
32296;DHT22;18781;51.550;5.418;2023-02-01T17:42:19;11.10;63.70
32296;DHT22;18781;51.550;5.418;2023-02-01T17:44:45;11.10;63.80
32296;DHT22;18781;51.550;5.418;2023-02-01T17:47:16;11.10;63.80
32296;DHT22;18781;51.550;5.418;2023-02-01T17:49:41;11.10;63.90
32296;DHT22;18781;51.550;5.418;2023-02-01T17:52:14;11.10;63.90
32296;DHT22;18781;51.550;5.418;2023-02-01T17:54:41;11.10;64.00
32296;DHT22;18781;51.550;5.418;2023-02-01T17:57:13;11.00;63.90
32296;DHT22;18781;51.550;5.418;2023-02-01T17:59:39;11.10;64.00
32296;DHT22;18781;51.550;5.418;2023-02-01T18:02:20;11.10;64.00
32296;DHT22;18781;51.550;5.418;2023-02-01T18:04:46;11.10;64.10
32296;DHT22;18781;51.550;5.418;2023-02-01T18:07:12;11.10;64.10
32296;DHT22;18781;51.550;5.418;2023-02-01T18:09:37;11.10;64.10
32296;DHT22;18781;51.550;5.418;2023-02-01T18:12:04;11.00;64.10
32296;DHT22;18781;51.550;5.418;2023-02-01T18:14:30;11.10;64.20
32296;DHT22;18781;51.550;5.418;2023-02-01T18:16:56;11.00;64.20
32296;DHT22;18781;51.550;5.418;2023-02-01T18:19:22;11.10;64.20
32296;DHT22;18781;51.550;5.418;2023-02-01T18:21:47;11.10;64.30
32296;DHT22;18781;51.550;5.418;2023-02-01T18:24:14;11.00;64.20
32296;DHT22;18781;51.550;5.418;2023-02-01T18:26:40;11.10;64.20